Station Historical Data
Daily Summary for October 2, 2017 Units:  English    Metric   Both
« Previous Day
Next Day »
Daily Weekly Monthly Yearly Custom
  High: Low: Average:
Temperature: 74.5 °F 41.4 °F 56.8 °F
Dew Point: 50.5 °F 38.0 °F 43.7 °F
Humidity: 88% 31% 65%
Wind Speed: 5.0mph 0.0mph 0.7mph
Wind Gust: 9.0mph - -
Wind- - East
Pressure: 30.41 in 30.33 in -
Precipitation: 0.00 in    
Historical Graphs
 
 
Tabular Data for October 2, 2017
Time Temperature Dew Point Pressure Wind Wind Speed Wind Gust Humidity Rainfall Rate (Hourly)
00:04 47.6 °F 42.7 °F 30.34 in Calm     83% 0.00 in
00:09 47.6 °F 42.7 °F 30.34 in Calm     83% 0.00 in
00:14 47.6 °F 42.7 °F 30.34 in Calm     83% 0.00 in
00:19 47.3 °F 42.4 °F 30.34 in Calm     83% 0.00 in
00:24 47.2 °F 42.3 °F 30.34 in Calm     83% 0.00 in
00:29 47.1 °F 41.9 °F 30.34 in Calm     82% 0.00 in
00:34 46.9 °F 42.0 °F 30.34 in Calm     83% 0.00 in
00:39 46.7 °F 41.8 °F 30.34 in Calm     83% 0.00 in
00:44 46.5 °F 41.6 °F 30.34 in Calm     83% 0.00 in
00:49 46.3 °F 41.7 °F 30.33 in Calm     84% 0.00 in
00:54 46.1 °F 41.5 °F 30.33 in Calm     84% 0.00 in
00:59 46.0 °F 41.4 °F 30.34 in Calm     84% 0.00 in
01:04 45.7 °F 41.1 °F 30.34 in Calm     84% 0.00 in
01:09 45.6 °F 41.4 °F 30.33 in Calm     85% 0.00 in
01:14 45.4 °F 41.2 °F 30.33 in Calm     85% 0.00 in
01:19 45.3 °F 41.1 °F 30.33 in Calm     85% 0.00 in
01:24 45.3 °F 41.1 °F 30.33 in Calm     85% 0.00 in
01:29 45.4 °F 41.2 °F 30.33 in Calm     85% 0.00 in
01:34 45.1 °F 40.9 °F 30.33 in Calm     85% 0.00 in
01:39 45.1 °F 40.9 °F 30.33 in Calm     85% 0.00 in
01:44 45.1 °F 40.9 °F 30.33 in Calm     85% 0.00 in
01:49 45.1 °F 40.9 °F 30.33 in Calm     85% 0.00 in
01:54 45.1 °F 40.9 °F 30.34 in Calm     85% 0.00 in
01:59 44.9 °F 40.7 °F 30.33 in Calm     85% 0.00 in
02:04 44.9 °F 40.7 °F 30.34 in Calm     85% 0.00 in
02:09 44.7 °F 40.5 °F 30.34 in Calm     85% 0.00 in
02:14 44.7 °F 40.5 °F 30.34 in Calm     85% 0.00 in
02:19 44.6 °F 40.4 °F 30.34 in Calm     85% 0.00 in
02:24 44.5 °F 40.3 °F 30.33 in Calm     85% 0.00 in
02:29 44.5 °F 40.3 °F 30.34 in Calm     85% 0.00 in
02:34 44.4 °F 40.2 °F 30.33 in Calm     85% 0.00 in
02:39 44.4 °F 40.2 °F 30.33 in Calm     85% 0.00 in
02:49 44.2 °F 40.0 °F 30.33 in Calm     85% 0.00 in
02:54 44.1 °F 39.9 °F 30.33 in Calm     85% 0.00 in
02:59 44.0 °F 39.8 °F 30.33 in Calm     85% 0.00 in
03:04 43.9 °F 39.7 °F 30.33 in Calm     85% 0.00 in
03:09 43.6 °F 39.4 °F 30.33 in Calm     85% 0.00 in
03:14 43.5 °F 39.6 °F 30.33 in Calm     86% 0.00 in
03:19 43.4 °F 39.5 °F 30.33 in Calm     86% 0.00 in
03:24 43.2 °F 39.3 °F 30.33 in Calm     86% 0.00 in
03:29 43.1 °F 39.2 °F 30.33 in Calm     86% 0.00 in
03:34 43.0 °F 39.1 °F 30.33 in Calm     86% 0.00 in
03:39 42.9 °F 39.0 °F 30.33 in Calm     86% 0.00 in
03:44 42.8 °F 39.2 °F 30.33 in Calm     87% 0.00 in
03:49 42.5 °F 38.9 °F 30.33 in Calm     87% 0.00 in
03:54 42.4 °F 38.8 °F 30.33 in Calm     87% 0.00 in
03:59 42.4 °F 38.8 °F 30.33 in Calm     87% 0.00 in
04:04 42.3 °F 38.7 °F 30.33 in Calm     87% 0.00 in
04:09 42.3 °F 38.7 °F 30.33 in Calm     87% 0.00 in
04:14 42.2 °F 38.6 °F 30.33 in Calm     87% 0.00 in
04:19 42.2 °F 38.6 °F 30.34 in Calm     87% 0.00 in
04:24 42.1 °F 38.5 °F 30.34 in Calm     87% 0.00 in
04:29 42.0 °F 38.4 °F 30.34 in Calm     87% 0.00 in
04:39 42.1 °F 38.8 °F 30.34 in Calm     88% 0.00 in
04:44 42.0 °F 38.7 °F 30.34 in Calm     88% 0.00 in
04:49 41.9 °F 38.3 °F 30.34 in Calm     87% 0.00 in
04:54 41.6 °F 38.0 °F 30.34 in Calm     87% 0.00 in
04:59 41.6 °F 38.3 °F 30.34 in Calm     88% 0.00 in
05:04 41.6 °F 38.3 °F 30.34 in Calm     88% 0.00 in
05:09 41.4 °F 38.1 °F 30.34 in Calm     88% 0.00 in
05:14 41.6 °F 38.3 °F 30.34 in Calm     88% 0.00 in
05:19 41.5 °F 38.2 °F 30.34 in Calm     88% 0.00 in
05:24 41.5 °F 38.2 °F 30.34 in Calm     88% 0.00 in
05:29 41.6 °F 38.3 °F 30.34 in Calm     88% 0.00 in
05:34 41.5 °F 38.2 °F 30.35 in Calm     88% 0.00 in
05:39 41.4 °F 38.1 °F 30.35 in Calm     88% 0.00 in
05:44 41.4 °F 38.1 °F 30.35 in Calm     88% 0.00 in
05:49 41.6 °F 38.3 °F 30.36 in Calm     88% 0.00 in
05:54 41.7 °F 38.4 °F 30.36 in Calm     88% 0.00 in
05:59 41.7 °F 38.4 °F 30.36 in Calm     88% 0.00 in
06:04 41.6 °F 38.3 °F 30.36 in Calm     88% 0.00 in
06:09 41.7 °F 38.4 °F 30.36 in Calm     88% 0.00 in
06:14 41.6 °F 38.3 °F 30.36 in Calm     88% 0.00 in
06:19 41.7 °F 38.4 °F 30.36 in Calm     88% 0.00 in
06:24 41.7 °F 38.1 °F 30.36 in Calm     87% 0.00 in
06:29 41.8 °F 38.2 °F 30.36 in Calm     87% 0.00 in
06:34 41.8 °F 38.2 °F 30.36 in Calm     87% 0.00 in
06:39 41.9 °F 38.3 °F 30.36 in Calm     87% 0.00 in
06:44 41.8 °F 38.2 °F 30.37 in Calm     87% 0.00 in
06:49 41.9 °F 38.3 °F 30.37 in Calm     87% 0.00 in
06:54 42.0 °F 38.4 °F 30.37 in Calm     87% 0.00 in
06:59 42.2 °F 38.6 °F 30.37 in Calm     87% 0.00 in
07:04 42.4 °F 38.8 °F 30.37 in Calm     87% 0.00 in
07:09 42.5 °F 38.6 °F 30.37 in Calm     86% 0.00 in
07:14 42.6 °F 38.7 °F 30.37 in ENE 1.0 mph 2.0 mph 86% 0.00 in
07:19 42.7 °F 38.8 °F 30.37 in Calm   2.0 mph 86% 0.00 in
07:24 42.8 °F 38.9 °F 30.38 in Calm   3.0 mph 86% 0.00 in
07:29 42.9 °F 38.7 °F 30.38 in Calm     85% 0.00 in
07:34 43.1 °F 38.9 °F 30.38 in Calm     85% 0.00 in
07:39 43.2 °F 39.0 °F 30.38 in Calm     85% 0.00 in
07:44 43.5 °F 39.0 °F 30.39 in Calm     84% 0.00 in
07:49 43.8 °F 39.3 °F 30.39 in Calm   2.0 mph 84% 0.00 in
07:54 44.1 °F 39.6 °F 30.39 in Calm   2.0 mph 84% 0.00 in
07:59 44.4 °F 39.6 °F 30.39 in Calm     83% 0.00 in
08:04 44.7 °F 39.9 °F 30.39 in Calm     83% 0.00 in
08:09 45.2 °F 40.0 °F 30.39 in Calm     82% 0.00 in
08:14 45.5 °F 40.0 °F 30.39 in Calm   1.0 mph 81% 0.00 in
08:19 45.9 °F 40.4 °F 30.39 in Calm   1.0 mph 81% 0.00 in
08:24 46.3 °F 40.5 °F 30.39 in Calm     80% 0.00 in
08:29 46.7 °F 40.9 °F 30.39 in Calm   2.0 mph 80% 0.00 in
08:34 47.2 °F 41.0 °F 30.39 in Calm   2.0 mph 79% 0.00 in
08:39 47.9 °F 41.4 °F 30.39 in Calm     78% 0.00 in
08:44 48.9 °F 42.0 °F 30.39 in Calm   2.0 mph 77% 0.00 in
08:49 49.5 °F 42.2 °F 30.39 in Calm   2.0 mph 76% 0.00 in
08:54 50.1 °F 42.1 °F 30.39 in Calm     74% 0.00 in
08:59 50.1 °F 42.5 °F 30.40 in Calm   2.0 mph 75% 0.00 in
09:04 50.6 °F 43.0 °F 30.40 in Calm   2.0 mph 75% 0.00 in
09:09 51.2 °F 42.8 °F 30.40 in Calm   1.0 mph 73% 0.00 in
09:14 51.9 °F 43.2 °F 30.40 in Calm   2.0 mph 72% 0.00 in
09:19 52.6 °F 43.8 °F 30.40 in Calm   2.0 mph 72% 0.00 in
09:24 53.5 °F 44.3 °F 30.40 in Calm   2.0 mph 71% 0.00 in
09:29 54.1 °F 44.2 °F 30.40 in Calm   3.0 mph 69% 0.00 in
09:34 54.9 °F 44.5 °F 30.40 in SSE 1.0 mph 3.0 mph 68% 0.00 in
09:39 55.1 °F 45.5 °F 30.40 in SSE 1.0 mph 3.0 mph 70% 0.00 in
09:44 55.8 °F 45.0 °F 30.40 in SSE 2.0 mph 2.0 mph 67% 0.00 in
09:49 56.3 °F 45.5 °F 30.40 in Calm   2.0 mph 67% 0.00 in
09:54 56.8 °F 45.6 °F 30.40 in Calm   3.0 mph 66% 0.00 in
09:59 57.5 °F 45.4 °F 30.40 in SSE 1.0 mph 3.0 mph 64% 0.00 in
10:04 58.1 °F 46.0 °F 30.40 in Calm   2.0 mph 64% 0.00 in
10:09 59.2 °F 47.0 °F 30.40 in SSE 2.0 mph 3.0 mph 64% 0.00 in
10:14 59.4 °F 47.2 °F 30.40 in Calm   2.0 mph 64% 0.00 in
10:19 60.0 °F 46.5 °F 30.41 in SSE 1.0 mph 2.0 mph 61% 0.00 in
10:24 60.4 °F 46.0 °F 30.41 in SSE 1.0 mph 3.0 mph 59% 0.00 in
10:29 61.3 °F 46.8 °F 30.41 in Calm   3.0 mph 59% 0.00 in
10:34 62.1 °F 46.2 °F 30.41 in Calm   3.0 mph 56% 0.00 in
10:39 62.6 °F 45.7 °F 30.40 in East 1.0 mph 2.0 mph 54% 0.00 in
10:44 63.3 °F 45.4 °F 30.40 in Calm   3.0 mph 52% 0.00 in
10:49 63.4 °F 44.9 °F 30.40 in ESE 1.0 mph 4.0 mph 51% 0.00 in
10:54 63.4 °F 44.9 °F 30.41 in SSE 1.0 mph 4.0 mph 51% 0.00 in
10:59 63.8 °F 45.3 °F 30.41 in SSE 1.0 mph 4.0 mph 51% 0.00 in
11:04 64.0 °F 44.4 °F 30.41 in SSE 1.0 mph 4.0 mph 49% 0.00 in
11:09 64.6 °F 44.5 °F 30.41 in SE 2.0 mph 5.0 mph 48% 0.00 in
11:14 64.8 °F 45.2 °F 30.41 in Calm   4.0 mph 49% 0.00 in
11:19 65.4 °F 45.7 °F 30.41 in SE 1.0 mph 4.0 mph 49% 0.00 in
11:24 65.6 °F 44.3 °F 30.41 in ESE 1.0 mph 5.0 mph 46% 0.00 in
11:29 65.6 °F 45.4 °F 30.40 in SE 1.0 mph 4.0 mph 48% 0.00 in
11:34 66.1 °F 44.7 °F 30.41 in ENE 2.0 mph 3.0 mph 46% 0.00 in
11:39 65.9 °F 46.2 °F 30.40 in NE 1.0 mph 5.0 mph 49% 0.00 in
11:44 67.2 °F 44.5 °F 30.41 in Calm   5.0 mph 44% 0.00 in
11:54 67.3 °F 44.0 °F 30.40 in Calm   4.0 mph 43% 0.00 in
11:59 67.5 °F 45.4 °F 30.40 in East 1.0 mph 5.0 mph 45% 0.00 in
12:04 67.8 °F 46.8 °F 30.40 in East 2.0 mph 5.0 mph 47% 0.00 in
12:09 67.8 °F 43.9 °F 30.40 in ESE 2.0 mph 6.0 mph 42% 0.00 in
12:14 68.1 °F 43.5 °F 30.40 in Calm   4.0 mph 41% 0.00 in
12:19 68.4 °F 44.4 °F 30.40 in SSE 1.0 mph 5.0 mph 42% 0.00 in
12:24 68.2 °F 41.6 °F 30.40 in Calm   4.0 mph 38% 0.00 in
12:29 68.9 °F 42.9 °F 30.40 in SSE 2.0 mph 5.0 mph 39% 0.00 in
12:34 68.9 °F 42.9 °F 30.40 in SSE 2.0 mph 6.0 mph 39% 0.00 in
12:39 69.0 °F 46.8 °F 30.40 in SSE 2.0 mph 4.0 mph 45% 0.00 in
12:44 69.1 °F 41.7 °F 30.39 in Calm   5.0 mph 37% 0.00 in
12:49 69.0 °F 42.3 °F 30.40 in Calm   3.0 mph 38% 0.00 in
12:54 69.9 °F 42.4 °F 30.40 in SSE 1.0 mph 4.0 mph 37% 0.00 in
12:59 70.0 °F 41.8 °F 30.40 in SE 1.0 mph 4.0 mph 36% 0.00 in
13:04 70.1 °F 43.3 °F 30.40 in SW 1.0 mph 3.0 mph 38% 0.00 in
13:09 70.4 °F 43.6 °F 30.39 in Calm   3.0 mph 38% 0.00 in
13:14 71.1 °F 43.5 °F 30.39 in Calm   3.0 mph 37% 0.00 in
13:19 71.2 °F 45.0 °F 30.39 in ENE 1.0 mph 5.0 mph 39% 0.00 in
13:24 70.7 °F 45.2 °F 30.39 in ENE 2.0 mph 5.0 mph 40% 0.00 in
13:29 70.6 °F 46.4 °F 30.39 in NE 1.0 mph 5.0 mph 42% 0.00 in
13:34 71.3 °F 47.0 °F 30.39 in NNE 1.0 mph 5.0 mph 42% 0.00 in
13:39 71.7 °F 44.7 °F 30.39 in Calm   3.0 mph 38% 0.00 in
13:44 71.3 °F 45.1 °F 30.38 in SE 2.0 mph 5.0 mph 39% 0.00 in
13:49 71.6 °F 43.2 °F 30.38 in SE 2.0 mph 4.0 mph 36% 0.00 in
13:54 71.3 °F 46.4 °F 30.38 in Calm   3.0 mph 41% 0.00 in
13:59 71.1 °F 41.3 °F 30.38 in SE 1.0 mph 3.0 mph 34% 0.00 in
14:04 71.3 °F 40.7 °F 30.38 in WSW 1.0 mph 4.0 mph 33% 0.00 in
14:09 72.0 °F 42.8 °F 30.38 in SSE 1.0 mph 4.0 mph 35% 0.00 in
14:14 72.1 °F 44.4 °F 30.37 in ENE 2.0 mph 4.0 mph 37% 0.00 in
14:19 72.8 °F 45.0 °F 30.37 in Calm   5.0 mph 37% 0.00 in
14:24 72.7 °F 44.2 °F 30.37 in SE 2.0 mph 6.0 mph 36% 0.00 in
14:29 72.6 °F 45.5 °F 30.36 in SSE 1.0 mph 6.0 mph 38% 0.00 in
14:34 73.6 °F 45.0 °F 30.36 in SSE 2.0 mph 6.0 mph 36% 0.00 in
14:39 73.6 °F 43.5 °F 30.36 in ESE 2.0 mph 6.0 mph 34% 0.00 in
14:44 73.2 °F 44.6 °F 30.36 in South 2.0 mph 4.0 mph 36% 0.00 in
14:49 73.0 °F 43.0 °F 30.36 in SSE 3.0 mph 5.0 mph 34% 0.00 in
14:54 73.3 °F 43.2 °F 30.36 in SE 3.0 mph 7.0 mph 34% 0.00 in
14:59 73.3 °F 46.2 °F 30.36 in SSE 2.0 mph 7.0 mph 38% 0.00 in
15:04 73.7 °F 43.6 °F 30.36 in SE 3.0 mph 3.0 mph 34% 0.00 in
15:14 73.7 °F 45.1 °F 30.35 in SE 3.0 mph 6.0 mph 36% 0.00 in
15:19 73.7 °F 43.6 °F 30.35 in Calm   3.0 mph 34% 0.00 in
15:24 74.3 °F 46.3 °F 30.35 in Calm   1.0 mph 37% 0.00 in
15:29 74.5 °F 42.7 °F 30.35 in East 1.0 mph 7.0 mph 32% 0.00 in
15:34 73.8 °F 42.1 °F 30.35 in ESE 2.0 mph 7.0 mph 32% 0.00 in
15:39 73.9 °F 42.2 °F 30.35 in SE 2.0 mph 4.0 mph 32% 0.00 in
15:44 74.2 °F 45.5 °F 30.35 in ESE 2.0 mph 4.0 mph 36% 0.00 in
15:49 74.4 °F 45.0 °F 30.35 in East 3.0 mph 6.0 mph 35% 0.00 in
15:54 74.0 °F 43.8 °F 30.35 in East 2.0 mph 7.0 mph 34% 0.00 in
15:59 74.0 °F 43.8 °F 30.35 in East 2.0 mph 7.0 mph 34% 0.00 in
16:04 73.7 °F 43.6 °F 30.35 in SE 1.0 mph 5.0 mph 34% 0.00 in
16:09 74.0 °F 41.4 °F 30.35 in ENE 4.0 mph 7.0 mph 31% 0.00 in
16:14 73.6 °F 41.1 °F 30.35 in Calm   4.0 mph 31% 0.00 in
16:19 73.9 °F 41.3 °F 30.35 in SE 1.0 mph 4.0 mph 31% 0.00 in
16:24 73.9 °F 43.8 °F 30.35 in ENE 2.0 mph 6.0 mph 34% 0.00 in
16:29 73.7 °F 42.8 °F 30.35 in ENE 2.0 mph 6.0 mph 33% 0.00 in
16:34 74.0 °F 43.1 °F 30.35 in ENE 2.0 mph 5.0 mph 33% 0.00 in
16:39 73.7 °F 45.8 °F 30.35 in NE 5.0 mph 9.0 mph 37% 0.00 in
16:44 73.1 °F 46.0 °F 30.35 in ENE 2.0 mph 7.0 mph 38% 0.00 in
16:49 73.2 °F 46.8 °F 30.35 in NE 3.0 mph 5.0 mph 39% 0.00 in
16:54 73.2 °F 48.7 °F 30.35 in NE 2.0 mph 3.0 mph 42% 0.00 in
16:59 72.7 °F 48.3 °F 30.35 in NE 2.0 mph 4.0 mph 42% 0.00 in
17:04 72.3 °F 49.2 °F 30.35 in NNE 2.0 mph 6.0 mph 44% 0.00 in
17:09 72.4 °F 49.3 °F 30.35 in North 2.0 mph 7.0 mph 44% 0.00 in
17:14 72.0 °F 48.9 °F 30.35 in NE 2.0 mph 4.0 mph 44% 0.00 in
17:19 71.7 °F 49.2 °F 30.35 in Calm   4.0 mph 45% 0.00 in
17:24 71.0 °F 49.7 °F 30.36 in ENE 2.0 mph 3.0 mph 47% 0.00 in
17:29 70.6 °F 48.2 °F 30.36 in NE 2.0 mph 8.0 mph 45% 0.00 in
17:34 70.0 °F 49.4 °F 30.36 in Calm   8.0 mph 48% 0.00 in
17:39 69.7 °F 48.6 °F 30.36 in ENE 2.0 mph 7.0 mph 47% 0.00 in
17:44 69.5 °F 49.5 °F 30.36 in NE 1.0 mph 7.0 mph 49% 0.00 in
17:49 68.9 °F 48.9 °F 30.36 in NE 2.0 mph 2.0 mph 49% 0.00 in
17:54 68.9 °F 48.4 °F 30.36 in ENE 1.0 mph 5.0 mph 48% 0.00 in
17:59 68.7 °F 49.3 °F 30.36 in NE 1.0 mph 7.0 mph 50% 0.00 in
18:04 68.4 °F 48.5 °F 30.37 in NE 2.0 mph 8.0 mph 49% 0.00 in
18:09 68.4 °F 48.5 °F 30.37 in NE 3.0 mph 8.0 mph 49% 0.00 in
18:14 68.3 °F 48.4 °F 30.37 in NE 3.0 mph 6.0 mph 49% 0.00 in
18:19 68.1 °F 48.8 °F 30.36 in NE 3.0 mph 5.0 mph 50% 0.00 in
18:24 67.9 °F 48.0 °F 30.37 in NE 3.0 mph 8.0 mph 49% 0.00 in
18:29 67.6 °F 48.3 °F 30.37 in NE 3.0 mph 8.0 mph 50% 0.00 in
18:34 67.2 °F 48.5 °F 30.37 in ENE 5.0 mph 5.0 mph 51% 0.00 in
18:39 66.9 °F 48.2 °F 30.37 in NE 2.0 mph 5.0 mph 51% 0.00 in
18:44 66.7 °F 48.5 °F 30.37 in NE 2.0 mph 4.0 mph 52% 0.00 in
18:49 66.4 °F 48.2 °F 30.38 in Calm   5.0 mph 52% 0.00 in
18:54 66.1 °F 48.5 °F 30.37 in ENE 1.0 mph 4.0 mph 53% 0.00 in
18:59 65.8 °F 48.2 °F 30.37 in ENE 2.0 mph 8.0 mph 53% 0.00 in
19:04 65.5 °F 47.9 °F 30.37 in NE 4.0 mph 8.0 mph 53% 0.00 in
19:09 65.3 °F 47.7 °F 30.37 in NE 4.0 mph 7.0 mph 53% 0.00 in
19:14 65.0 °F 47.4 °F 30.37 in ENE 3.0 mph 7.0 mph 53% 0.00 in
19:19 64.9 °F 47.4 °F 30.38 in NE 3.0 mph 7.0 mph 53% 0.00 in
19:24 64.5 °F 47.5 °F 30.38 in NE 2.0 mph 6.0 mph 54% 0.00 in
19:29 64.2 °F 47.2 °F 30.38 in NE 1.0 mph 4.0 mph 54% 0.00 in
19:34 63.6 °F 47.1 °F 30.38 in Calm   4.0 mph 55% 0.00 in
19:39 62.9 °F 47.4 °F 30.38 in Calm   3.0 mph 57% 0.00 in
19:44 62.3 °F 47.8 °F 30.38 in Calm   2.0 mph 59% 0.00 in
19:49 61.8 °F 48.2 °F 30.38 in Calm   2.0 mph 61% 0.00 in
19:54 61.6 °F 48.9 °F 30.38 in Calm   3.0 mph 63% 0.00 in
19:59 61.3 °F 49.4 °F 30.38 in Calm   6.0 mph 65% 0.00 in
20:04 60.8 °F 49.8 °F 30.38 in NE 1.0 mph 6.0 mph 67% 0.00 in
20:09 60.3 °F 50.1 °F 30.39 in Calm   4.0 mph 69% 0.00 in
20:14 59.9 °F 50.5 °F 30.39 in Calm   2.0 mph 71% 0.00 in
20:19 59.9 °F 50.5 °F 30.39 in Calm   4.0 mph 71% 0.00 in
20:24 59.8 °F 50.4 °F 30.39 in Calm   2.0 mph 71% 0.00 in
20:29 59.5 °F 50.5 °F 30.39 in Calm   4.0 mph 72% 0.00 in
20:34 59.4 °F 50.4 °F 30.39 in NE 1.0 mph 4.0 mph 72% 0.00 in
20:39 59.1 °F 50.5 °F 30.40 in NE 1.0 mph 4.0 mph 73% 0.00 in
20:44 58.9 °F 50.3 °F 30.40 in NE 1.0 mph 3.0 mph 73% 0.00 in
20:49 58.9 °F 49.9 °F 30.40 in ENE 1.0 mph 5.0 mph 72% 0.00 in
20:54 59.0 °F 49.6 °F 30.40 in ENE 2.0 mph 4.0 mph 71% 0.00 in
20:59 58.8 °F 49.4 °F 30.40 in ENE 2.0 mph 4.0 mph 71% 0.00 in
21:04 58.7 °F 49.3 °F 30.40 in ENE 2.0 mph 4.0 mph 71% 0.00 in
21:09 58.4 °F 49.0 °F 30.40 in ENE 2.0 mph 4.0 mph 71% 0.00 in
21:14 58.2 °F 48.8 °F 30.40 in Calm   2.0 mph 71% 0.00 in
21:19 57.9 °F 48.6 °F 30.40 in ENE 1.0 mph 3.0 mph 71% 0.00 in
21:24 57.7 °F 48.4 °F 30.40 in Calm   1.0 mph 71% 0.00 in
21:29 57.6 °F 48.3 °F 30.40 in Calm     71% 0.00 in
21:34 57.3 °F 48.0 °F 30.40 in Calm     71% 0.00 in
21:39 57.1 °F 47.8 °F 30.40 in Calm     71% 0.00 in
21:44 56.8 °F 47.9 °F 30.40 in Calm     72% 0.00 in
21:49 56.7 °F 47.8 °F 30.40 in Calm     72% 0.00 in
21:54 56.4 °F 47.5 °F 30.40 in Calm     72% 0.00 in
21:59 56.2 °F 47.3 °F 30.40 in Calm     72% 0.00 in
22:04 56.1 °F 47.2 °F 30.40 in Calm     72% 0.00 in
22:09 55.7 °F 46.8 °F 30.40 in Calm     72% 0.00 in
22:14 55.6 °F 47.1 °F 30.40 in Calm     73% 0.00 in
22:19 55.5 °F 47.0 °F 30.40 in ENE 1.0 mph 2.0 mph 73% 0.00 in
22:24 55.5 °F 47.0 °F 30.40 in Calm   1.0 mph 73% 0.00 in
22:29 55.2 °F 46.7 °F 30.40 in Calm     73% 0.00 in
22:34 54.9 °F 46.4 °F 30.40 in Calm     73% 0.00 in
22:39 54.6 °F 46.5 °F 30.40 in Calm     74% 0.00 in
22:44 54.4 °F 46.3 °F 30.40 in Calm     74% 0.00 in
22:49 54.4 °F 46.3 °F 30.40 in Calm     74% 0.00 in
22:54 54.1 °F 46.3 °F 30.40 in Calm     75% 0.00 in
22:59 53.8 °F 46.1 °F 30.40 in Calm     75% 0.00 in
23:04 53.6 °F 45.9 °F 30.40 in Calm     75% 0.00 in
23:09 53.4 °F 46.0 °F 30.40 in Calm     76% 0.00 in
23:24 52.2 °F 45.2 °F 30.40 in Calm     77% 0.00 in
23:29 52.3 °F 45.3 °F 30.40 in Calm     77% 0.00 in
23:34 52.1 °F 45.1 °F 30.40 in Calm     77% 0.00 in
23:39 52.2 °F 45.2 °F 30.40 in Calm     77% 0.00 in
23:44 52.1 °F 45.1 °F 30.39 in Calm     77% 0.00 in
23:49 52.3 °F 45.3 °F 30.40 in Calm     77% 0.00 in
23:54 52.4 °F 45.4 °F 30.40 in Calm     77% 0.00 in
23:59 52.4 °F 45.4 °F 30.40 in Calm     77% 0.00 in
Buffalo, New York, USA
Compliments of Weather Underground - 2.5 mb